Search for airport 
image banner adimage banner adimage banner ad
image banner ad

KIZA - Santa Ynez

Located in Santa Ynez, United States

ICAO - IZA, IATA - SQA

Data provided by Airmate  

General information

Coordinates: N34°36'25" W120°4'32"
Elevation is 674 feet MSL.
Magnetic variation is 14° East
View others Airports in California

Operational data

Special qualification required
Current time UTC:
Current local time:
Weather
METAR: KIZA 211035Z AUTO 30004KT 3SM BR OVC004 12/11 A2994 RMK AO2
View NOTAMs / SUP AIP / TFR affecting this airport [VIEW]
Communications frequencies: [VIEW]

Runways:

RWY identifierQFULength (ft)Width (ft)SurfaceLDA (ft)
0898°280375ASPH
26278°280375ASPH

Airport contact information

Address: Santa Ynez United States

Satellite view of KIZA